This is the latest recevied weather packets stored in our database for station/object K0SDS. If no packets are shown the sender has not sent any weather packets the latest 1 day(s).
| Time | Temp. | Humidity | Pressure | Rain* | Wind** | Luminosity | Snow |
|---|---|---|---|---|---|---|---|
| 1777991737 | 8.33° C | 94% | 1012.1 hPa | 0 mm | 0 m/s | 49 W/m² | - |
| 1777991434 | 8.33° C | 94% | 1011.7 hPa | 0 mm | 0 m/s | 74 W/m² | - |
| 1777991131 | 8.33° C | 93% | 1011.6 hPa | 1.27 mm | 0 m/s | 78 W/m² | - |
| 1777990828 | 8.33° C | 93% | 1011.8 hPa | 3.05 mm | 0.45 m/s, 79° | 62 W/m² | - |
| 1777990526 | 8.33° C | 93% | 1011.8 hPa | 4.83 mm | 0 m/s | 105 W/m² | - |
| 1777990222 | 8.33° C | 93% | 1011.8 hPa | 4.83 mm | 0.45 m/s, 86° | 92 W/m² | - |
| 1777989919 | 8.33° C | 93% | 1012 hPa | 3.56 mm | 0.89 m/s, 50° | 65 W/m² | - |
| 1777989616 | 8.33° C | 93% | 1012 hPa | 1.78 mm | 0.45 m/s, 73° | 43 W/m² | - |
| 1777989312 | 7.78° C | 93% | 1012.2 hPa | 1.27 mm | 0 m/s | 23 W/m² | - |
| 1777989009 | 7.78° C | 93% | 1012.2 hPa | 1.27 mm | 0.45 m/s, 77° | 19 W/m² | - |
| 1777988705 | 7.78° C | 92% | 1012.2 hPa | 0 mm | 0 m/s | 18 W/m² | - |
| 1777988402 | 7.78° C | 92% | 1011.5 hPa | 0 mm | 0 m/s | 22 W/m² | - |
| 1777988099 | 8.33° C | 93% | 1011.6 hPa | 1.78 mm | 0.45 m/s, 64° | 19 W/m² | - |
| 1777987794 | 8.33° C | 93% | 1011.9 hPa | 3.05 mm | 0 m/s | 13 W/m² | - |
| 1777987492 | 8.33° C | 92% | 1011.7 hPa | 1.27 mm | 0 m/s | 22 W/m² | - |
| 1777987189 | 8.33° C | 92% | 1011.7 hPa | 1.78 mm | 0.45 m/s, 81° | 22 W/m² | - |
| 1777986886 | 8.33° C | 91% | 1011.4 hPa | 3.05 mm | 0.45 m/s, 83° | 22 W/m² | - |
| 1777986584 | 8.33° C | 91% | 1011.5 hPa | 1.27 mm | 0.45 m/s, 76° | 16 W/m² | - |
| 1777986281 | 7.78° C | 91% | 1011.5 hPa | 0 mm | 0.45 m/s, 77° | 10 W/m² | - |
| 1777985979 | 8.33° C | 91% | 1012.3 hPa | 1.78 mm | 0.89 m/s, 140° | 3 W/m² | - |
| 1777985676 | 8.33° C | 90% | 1011.6 hPa | 3.05 mm | 0.45 m/s, 93° | 3 W/m² | - |
| 1777985372 | 8.33° C | 89% | 1011.3 hPa | 3.05 mm | 0 m/s | 5 W/m² | - |
| 1777985069 | 8.33° C | 88% | 1011.3 hPa | 6.1 mm | 0 m/s | 6 W/m² | - |
| 1777984765 | 8.89° C | 86% | 1010.8 hPa | 6.1 mm | 0 m/s | 9 W/m² | - |
| 1777984462 | 8.89° C | 84% | 1010.6 hPa | 3.05 mm | 1.34 m/s, 12° | 7 W/m² | - |
* Rain latest hour (hover to see other rain measurements)
** Current wind speed in m/s (hover to see current wind gust speed)